createdAt,value
2023-05-02T00:00:41.786Z,22.83
2023-05-02T00:03:09.058Z,24.98
2023-05-02T00:05:35.750Z,26.50
2023-05-02T00:08:02.255Z,25.27
2023-05-02T00:10:28.592Z,26.77
2023-05-02T00:12:54.959Z,25.80
2023-05-02T00:15:21.338Z,25.30
2023-05-02T00:17:47.928Z,28.08
2023-05-02T00:20:14.375Z,30.52
2023-05-02T00:22:40.855Z,27.73
2023-05-02T00:25:07.660Z,30.75
2023-05-02T00:27:34.339Z,32.25
2023-05-02T00:30:01.305Z,31.88
2023-05-02T00:32:28.660Z,31.30
2023-05-02T00:34:55.813Z,31.98
2023-05-02T00:37:26.246Z,33.05
2023-05-02T00:39:52.588Z,33.72
2023-05-02T00:42:18.932Z,34.53
2023-05-02T00:44:46.821Z,37.17
2023-05-02T00:47:14.738Z,35.08
2023-05-02T00:49:41.356Z,33.63
2023-05-02T00:52:08.667Z,38.72
2023-05-02T00:54:39.093Z,40.53
2023-05-02T00:57:06.013Z,39.60
2023-05-02T00:59:34.664Z,40.00
2023-05-02T01:02:19.512Z,45.63
2023-05-02T01:05:10.507Z,43.17
2023-05-02T01:08:04.970Z,45.20
2023-05-02T01:10:56.906Z,45.67
2023-05-02T01:13:33.987Z,45.13
2023-05-02T01:16:03.327Z,48.80
2023-05-02T01:18:37.014Z,47.15
2023-05-02T01:21:07.871Z,47.42
2023-05-02T01:24:02.893Z,48.40
2023-05-02T01:26:52.404Z,50.58
2023-05-02T01:29:22.133Z,49.38
2023-05-02T01:31:51.145Z,49.25
2023-05-02T01:34:19.997Z,50.30
2023-05-02T01:36:50.571Z,49.67
2023-05-02T01:39:22.807Z,51.08
2023-05-02T01:41:52.052Z,50.58
2023-05-02T01:44:21.581Z,53.22
2023-05-02T01:46:49.687Z,55.47
2023-05-02T01:49:16.267Z,63.67
2023-05-02T01:51:50.703Z,53.30
2023-05-02T01:54:20.241Z,53.85
2023-05-02T01:56:49.204Z,54.63
2023-05-02T01:59:20.123Z,58.30
2023-05-02T02:01:49.755Z,55.72
2023-05-02T02:04:17.487Z,56.45
2023-05-02T02:06:48.239Z,53.08
2023-05-02T02:09:14.894Z,57.55
2023-05-02T02:11:49.839Z,58.45
2023-05-02T02:14:22.376Z,58.40
2023-05-02T02:16:53.609Z,61.25
2023-05-02T02:19:21.743Z,54.33
2023-05-02T02:21:49.045Z,59.35
2023-05-02T02:24:18.594Z,60.03
2023-05-02T02:26:45.173Z,56.13
2023-05-02T02:29:11.730Z,59.50
2023-05-02T02:31:39.984Z,61.58
2023-05-02T02:34:06.490Z,67.03
2023-05-02T02:36:46.746Z,59.00
2023-05-02T02:39:55.543Z,62.97
2023-05-02T02:42:40.887Z,61.75
2023-05-02T02:45:28.839Z,65.68
2023-05-02T02:48:16.518Z,63.97
2023-05-02T02:50:53.229Z,63.15
2023-05-02T02:53:26.450Z,62.25
2023-05-02T02:56:00.670Z,62.88
2023-05-02T02:58:30.254Z,59.10
2023-05-02T03:00:57.931Z,58.35
2023-05-02T03:03:29.133Z,59.17
2023-05-02T03:05:57.344Z,60.58
2023-05-02T03:08:24.309Z,59.97
2023-05-02T03:10:51.534Z,63.20
2023-05-02T03:13:17.886Z,53.15
2023-05-02T03:16:13.893Z,64.00
2023-05-02T03:18:41.084Z,56.75
2023-05-02T03:21:07.703Z,57.53
2023-05-02T03:23:34.267Z,58.60
2023-05-02T03:26:00.904Z,56.08
2023-05-02T03:28:27.256Z,59.72
2023-05-02T03:30:53.597Z,54.78
2023-05-02T03:33:20.594Z,52.30
2023-05-02T03:35:46.940Z,56.67
2023-05-02T03:38:13.474Z,49.47
2023-05-02T03:40:42.131Z,55.58
2023-05-02T03:43:08.702Z,49.90
2023-05-02T03:45:35.245Z,50.78
2023-05-02T03:48:02.010Z,52.53
2023-05-02T03:50:28.915Z,46.40
2023-05-02T03:52:55.540Z,45.90
2023-05-02T03:55:21.887Z,49.83
2023-05-02T03:57:48.311Z,48.58
2023-05-02T04:00:14.944Z,50.67
2023-05-02T04:02:41.455Z,43.95
2023-05-02T04:05:08.677Z,48.03
2023-05-02T04:07:35.713Z,48.75
2023-05-02T04:10:02.373Z,53.28
2023-05-02T04:12:29.001Z,44.97
2023-05-02T04:14:55.672Z,47.60
2023-05-02T04:17:22.046Z,41.60
2023-05-02T04:19:48.783Z,42.47
2023-05-02T04:22:15.425Z,40.92
2023-05-02T04:24:41.773Z,44.25
2023-05-02T04:27:08.292Z,39.75
2023-05-02T04:29:34.878Z,39.05
2023-05-02T04:32:01.427Z,41.85
2023-05-02T04:34:28.407Z,44.22
2023-05-02T04:36:54.751Z,45.75
2023-05-02T04:39:22.216Z,42.22
2023-05-02T04:41:48.565Z,38.08
2023-05-02T04:44:15.022Z,39.08
2023-05-02T04:46:41.446Z,39.65
2023-05-02T04:49:08.120Z,41.47
2023-05-02T04:51:34.786Z,40.72
2023-05-02T04:54:04.103Z,39.80
2023-05-02T04:56:30.520Z,38.80
2023-05-02T04:58:57.104Z,37.78
2023-05-02T05:01:24.924Z,36.30
2023-05-02T05:03:51.478Z,37.00
2023-05-02T05:06:18.328Z,38.67
2023-05-02T05:08:45.615Z,35.13
2023-05-02T05:11:12.968Z,34.80
2023-05-02T05:13:39.578Z,34.22
2023-05-02T05:16:06.335Z,28.17
2023-05-02T05:18:40.199Z,32.25
2023-05-02T05:21:07.664Z,29.13
2023-05-02T05:23:34.753Z,28.98
2023-05-02T05:26:30.482Z,29.98
2023-05-02T05:28:57.048Z,28.60
2023-05-02T05:31:24.406Z,25.92
2023-05-02T05:33:50.921Z,28.02
2023-05-02T05:36:17.714Z,25.52
2023-05-02T05:38:44.592Z,22.70
2023-05-02T05:41:14.121Z,20.98
2023-05-02T05:43:41.869Z,19.27
2023-05-02T05:46:08.181Z,15.32
2023-05-02T05:48:34.539Z,13.77
2023-05-02T05:51:07.536Z,12.05
2023-05-02T05:53:34.293Z,11.25
2023-05-02T05:56:12.505Z,13.55
2023-05-02T05:58:39.969Z,12.43
2023-05-02T06:01:07.236Z,11.20
2023-05-02T06:03:33.782Z,9.55
2023-05-02T06:06:02.511Z,12.27
2023-05-02T06:08:29.215Z,6.85
2023-05-02T06:10:55.635Z,9.95
2023-05-02T06:13:22.220Z,9.20
2023-05-02T06:15:48.723Z,7.47
2023-05-02T06:18:15.686Z,8.57
2023-05-02T06:20:42.449Z,8.43
2023-05-02T06:23:08.868Z,5.32
2023-05-02T06:25:37.862Z,6.55
2023-05-02T06:28:04.343Z,8.00
2023-05-02T06:30:31.956Z,7.30
2023-05-02T06:32:58.631Z,8.27
2023-05-02T06:35:25.057Z,7.95
2023-05-02T06:37:52.021Z,6.65
2023-05-02T06:40:18.417Z,6.22
2023-05-02T06:42:44.740Z,7.40
2023-05-02T06:45:11.574Z,6.03
2023-05-02T06:47:38.053Z,5.25
2023-05-02T06:50:06.366Z,5.32
2023-05-02T06:52:32.732Z,6.72
2023-05-02T06:54:59.080Z,7.03
2023-05-02T06:57:25.686Z,5.45
2023-05-02T06:59:52.347Z,7.70
2023-05-02T07:02:19.147Z,7.88
2023-05-02T07:04:46.917Z,9.43
2023-05-02T07:07:13.524Z,7.72
2023-05-02T07:09:39.869Z,7.55
2023-05-02T07:12:07.039Z,8.45
2023-05-02T07:14:33.794Z,5.30
2023-05-02T07:17:00.444Z,5.78
2023-05-02T07:19:26.828Z,6.80
2023-05-02T07:21:53.342Z,6.75
2023-05-02T07:24:19.850Z,7.00
2023-05-02T07:26:46.226Z,4.32
2023-05-02T07:29:12.620Z,7.68
2023-05-02T07:31:39.646Z,5.85
2023-05-02T07:34:09.054Z,5.88
2023-05-02T07:36:35.564Z,9.45
2023-05-02T07:39:01.885Z,4.68
2023-05-02T07:41:28.245Z,3.15
2023-05-02T07:43:54.653Z,2.47
2023-05-02T07:46:21.725Z,5.80
2023-05-02T07:48:48.402Z,3.40
2023-05-02T07:51:15.111Z,6.50
2023-05-02T07:53:41.528Z,7.97
2023-05-02T07:56:08.989Z,8.60
2023-05-02T07:58:37.310Z,5.65
2023-05-02T08:01:04.423Z,8.07
2023-05-02T08:03:31.384Z,7.30
2023-05-02T08:05:58.189Z,6.78
2023-05-02T08:08:24.671Z,7.43
2023-05-02T08:10:51.355Z,8.07
2023-05-02T08:13:18.234Z,13.38
2023-05-02T08:15:46.036Z,8.23
2023-05-02T08:18:13.005Z,8.23
2023-05-02T08:20:39.461Z,11.32
2023-05-02T08:23:05.802Z,14.25
2023-05-02T08:25:32.472Z,14.35
2023-05-02T08:27:58.875Z,9.25
2023-05-02T08:30:25.471Z,10.82
2023-05-02T08:32:51.834Z,14.65
2023-05-02T08:35:18.491Z,10.85
2023-05-02T08:37:44.870Z,11.52
2023-05-02T08:40:12.433Z,7.40
2023-05-02T08:42:42.097Z,14.80
2023-05-02T08:45:09.670Z,10.98
2023-05-02T08:47:38.684Z,9.68
2023-05-02T08:50:06.264Z,12.85
2023-05-02T08:52:33.568Z,15.65
2023-05-02T08:55:02.512Z,13.38
2023-05-02T08:57:31.083Z,15.43
2023-05-02T08:59:57.687Z,14.05
2023-05-02T09:02:44.998Z,10.45
2023-05-02T09:05:12.837Z,11.43
2023-05-02T09:07:47.745Z,14.05
2023-05-02T09:10:15.248Z,12.80
2023-05-02T09:12:42.079Z,14.18
2023-05-02T09:15:14.260Z,13.38
2023-05-02T09:17:45.884Z,13.70
2023-05-02T09:20:13.814Z,15.18
2023-05-02T09:22:49.399Z,19.75
2023-05-02T09:25:16.688Z,10.20
2023-05-02T09:27:55.024Z,12.65
2023-05-02T09:30:26.148Z,13.25
2023-05-02T09:32:55.829Z,11.10
2023-05-02T09:35:26.100Z,10.90
2023-05-02T09:37:57.431Z,13.82
2023-05-02T09:40:24.352Z,10.85
2023-05-02T09:42:54.540Z,10.00
2023-05-02T09:45:25.765Z,15.85
2023-05-02T09:47:53.482Z,10.27
2023-05-02T09:50:35.025Z,11.50
2023-05-02T09:53:07.141Z,12.90
2023-05-02T09:55:33.718Z,11.27
2023-05-02T09:58:01.144Z,15.73
2023-05-02T10:00:46.143Z,9.73
2023-05-02T10:03:16.699Z,17.00
2023-05-02T10:05:45.304Z,14.88
2023-05-02T10:10:41.986Z,14.68
2023-05-02T10:13:09.083Z,14.15
2023-05-02T10:15:44.656Z,15.52
2023-05-02T10:18:17.209Z,9.82
2023-05-02T10:20:49.814Z,13.25
2023-05-02T10:23:17.522Z,12.95
2023-05-02T10:25:43.950Z,14.37
2023-05-02T10:28:12.673Z,12.30
2023-05-02T10:30:39.996Z,11.40
2023-05-02T10:33:06.653Z,10.35
2023-05-02T10:35:33.381Z,12.48
2023-05-02T10:38:01.112Z,13.52
2023-05-02T10:40:27.884Z,15.10
2023-05-02T10:42:54.521Z,16.90
2023-05-02T10:45:34.705Z,9.82
2023-05-02T10:48:20.879Z,14.40
2023-05-02T10:50:48.354Z,9.85
2023-05-02T10:53:37.273Z,17.92
2023-05-02T10:56:12.009Z,12.60
2023-05-02T10:58:38.702Z,14.93
2023-05-02T11:01:28.385Z,11.02
2023-05-02T11:04:03.309Z,12.15
2023-05-02T11:06:32.730Z,11.30
2023-05-02T11:09:18.547Z,12.75
2023-05-02T11:11:45.452Z,12.13
2023-05-02T11:14:33.051Z,10.05
2023-05-02T11:17:04.524Z,8.32
2023-05-02T11:19:53.989Z,9.77
2023-05-02T11:22:28.220Z,10.05
2023-05-02T11:24:55.763Z,11.77
2023-05-02T11:27:32.172Z,14.70
2023-05-02T11:30:09.978Z,7.63
2023-05-02T11:32:46.053Z,7.88
2023-05-02T11:35:26.886Z,10.80
2023-05-02T11:37:54.131Z,7.90
2023-05-02T11:40:20.568Z,10.80
2023-05-02T11:42:47.329Z,15.10
2023-05-02T11:45:13.889Z,8.18
2023-05-02T11:47:42.302Z,10.40
2023-05-02T11:50:12.288Z,8.98
2023-05-02T11:52:48.163Z,11.10
2023-05-02T11:55:15.829Z,11.65
2023-05-02T11:57:43.154Z,8.27
2023-05-02T12:00:13.122Z,8.50
2023-05-02T12:02:44.983Z,9.88
2023-05-02T12:05:14.433Z,9.40
2023-05-02T12:07:43.255Z,16.15
2023-05-02T12:10:11.337Z,13.40
2023-05-02T12:12:39.413Z,9.30
2023-05-02T12:15:07.523Z,7.57
2023-05-02T12:17:39.186Z,7.65
2023-05-02T12:20:07.146Z,11.50
2023-05-02T12:22:34.111Z,7.60
2023-05-02T12:25:01.067Z,4.85
2023-05-02T12:27:28.098Z,8.05
2023-05-02T12:29:54.893Z,7.50
2023-05-02T12:32:33.670Z,8.32
2023-05-02T12:35:02.110Z,7.18
2023-05-02T12:37:30.113Z,9.13
2023-05-02T12:39:56.731Z,9.68
2023-05-02T12:42:26.647Z,14.15
2023-05-02T12:44:53.228Z,7.18
2023-05-02T12:47:21.459Z,9.95
2023-05-02T12:49:51.250Z,13.40
2023-05-02T12:52:19.131Z,11.27
2023-05-02T12:54:46.534Z,9.93
2023-05-02T12:57:26.284Z,8.13
2023-05-02T12:59:54.427Z,8.05
2023-05-02T13:02:21.612Z,6.25
2023-05-02T13:04:47.984Z,9.48
2023-05-02T13:07:14.551Z,5.82
2023-05-02T13:09:40.949Z,10.27
2023-05-02T13:12:07.929Z,10.07
2023-05-02T13:14:34.570Z,9.20
2023-05-02T13:17:01.711Z,8.45
2023-05-02T13:19:31.087Z,9.02
2023-05-02T13:21:57.995Z,10.68
2023-05-02T13:24:24.430Z,8.23
2023-05-02T13:26:51.719Z,7.25
2023-05-02T13:29:18.205Z,6.45
2023-05-02T13:31:44.848Z,12.25
2023-05-02T13:34:11.465Z,8.35
2023-05-02T13:36:43.963Z,11.18
2023-05-02T13:39:10.493Z,8.80
2023-05-02T13:41:38.383Z,18.17
2023-05-02T13:44:05.053Z,11.43
2023-05-02T13:46:36.727Z,9.43
2023-05-02T13:49:04.139Z,11.98
2023-05-02T13:51:34.254Z,15.32
2023-05-02T13:54:02.329Z,12.02
2023-05-02T13:56:29.031Z,12.35
2023-05-02T13:58:55.568Z,8.75
2023-05-02T14:01:22.006Z,12.80
2023-05-02T14:03:48.661Z,11.82
2023-05-02T14:06:15.358Z,11.38
2023-05-02T14:08:42.389Z,13.93
2023-05-02T14:11:08.973Z,16.02
2023-05-02T14:13:35.413Z,11.80
2023-05-02T14:16:01.793Z,10.50
2023-05-02T14:18:28.409Z,11.57
2023-05-02T14:20:58.009Z,16.88
2023-05-02T14:23:24.317Z,15.88
2023-05-02T14:25:50.977Z,18.08
2023-05-02T14:28:17.982Z,14.68
2023-05-02T14:30:44.374Z,14.10
2023-05-02T14:33:11.182Z,13.50
2023-05-02T14:35:37.610Z,19.75
2023-05-02T14:38:04.126Z,12.13
2023-05-02T14:40:30.617Z,16.02
2023-05-02T14:42:57.579Z,14.50
2023-05-02T14:45:24.182Z,15.40
2023-05-02T14:47:50.678Z,18.27
2023-05-02T14:50:17.505Z,13.25
2023-05-02T14:52:46.327Z,18.10
2023-05-02T14:55:13.063Z,17.33
2023-05-02T14:57:39.404Z,12.82
2023-05-02T15:00:10.557Z,12.07
2023-05-02T15:02:37.069Z,12.27
2023-05-02T15:05:13.061Z,15.13
2023-05-02T15:07:39.889Z,18.60
2023-05-02T15:10:06.916Z,13.60
2023-05-02T15:12:34.840Z,15.93
2023-05-02T15:15:01.568Z,17.23
2023-05-02T15:17:27.892Z,12.07
2023-05-02T15:19:55.354Z,18.65
2023-05-02T15:22:25.949Z,11.23
2023-05-02T15:24:52.547Z,16.65
2023-05-02T15:27:19.187Z,11.32
2023-05-02T15:29:53.955Z,17.35
2023-05-02T15:32:21.696Z,15.23
2023-05-02T15:34:48.390Z,13.27
2023-05-02T15:37:14.893Z,11.18
2023-05-02T15:39:42.089Z,14.68
2023-05-02T15:42:08.706Z,10.70
2023-05-02T15:44:38.954Z,11.20
2023-05-02T15:47:06.492Z,13.38
2023-05-02T15:49:34.661Z,10.52
2023-05-02T15:52:02.369Z,13.48
2023-05-02T15:54:28.985Z,12.52
2023-05-02T15:56:55.416Z,11.88
2023-05-02T15:59:21.778Z,11.98
2023-05-02T16:01:48.191Z,15.48
2023-05-02T16:04:15.952Z,15.25
2023-05-02T16:06:42.370Z,14.82
2023-05-02T16:09:10.559Z,16.67
2023-05-02T16:11:37.055Z,17.67
2023-05-02T16:14:04.249Z,16.58
2023-05-02T16:16:31.054Z,12.13
2023-05-02T16:18:57.549Z,12.02
2023-05-02T16:21:24.128Z,13.20
2023-05-02T16:23:50.479Z,15.40
2023-05-02T16:26:17.082Z,14.25
2023-05-02T16:28:43.810Z,16.15
2023-05-02T16:31:11.676Z,16.85
2023-05-02T16:33:39.179Z,17.98
2023-05-02T16:36:06.365Z,11.25
2023-05-02T16:38:33.542Z,8.88
2023-05-02T16:41:03.209Z,14.30
2023-05-02T16:43:30.589Z,14.48
2023-05-02T16:46:02.402Z,11.05
2023-05-02T16:48:30.191Z,18.23
2023-05-02T16:50:57.341Z,15.52
2023-05-02T16:53:24.353Z,15.90
2023-05-02T16:55:51.044Z,11.18
2023-05-02T16:58:17.401Z,11.43
2023-05-02T17:00:43.912Z,13.65
2023-05-02T17:03:11.116Z,14.15
2023-05-02T17:05:39.175Z,12.20
2023-05-02T17:08:06.065Z,12.55
2023-05-02T17:10:32.642Z,15.52
2023-05-02T17:12:59.389Z,13.68
2023-05-02T17:15:26.151Z,12.63
2023-05-02T17:17:52.768Z,12.95
2023-05-02T17:20:20.354Z,11.75
2023-05-02T17:22:46.916Z,11.00
2023-05-02T17:25:14.124Z,15.23
2023-05-02T17:27:41.326Z,17.70
2023-05-02T17:30:08.631Z,10.93
2023-05-02T17:32:37.538Z,13.80
2023-05-02T17:35:06.031Z,12.70
2023-05-02T17:37:35.108Z,21.30
2023-05-02T17:40:02.495Z,12.10
2023-05-02T17:42:29.340Z,12.43
2023-05-02T17:44:56.017Z,13.05
2023-05-02T17:47:22.731Z,14.45
2023-05-02T17:49:51.342Z,15.60
2023-05-02T17:54:46.193Z,12.02
2023-05-02T17:59:41.741Z,19.08
2023-05-02T18:02:10.346Z,10.18
2023-05-02T18:04:37.468Z,7.75
2023-05-02T18:07:05.972Z,10.75
2023-05-02T18:09:32.913Z,12.45
2023-05-02T18:12:00.653Z,11.70
2023-05-02T18:14:27.226Z,9.57
2023-05-02T18:16:53.634Z,11.75
2023-05-02T18:19:20.260Z,11.82
2023-05-02T18:21:46.799Z,10.95
2023-05-02T18:24:13.210Z,10.27
2023-05-02T18:26:39.832Z,10.45
2023-05-02T18:29:06.182Z,9.88
2023-05-02T18:31:32.919Z,9.20
2023-05-02T18:33:59.298Z,10.10
2023-05-02T18:36:27.413Z,9.73
2023-05-02T18:38:57.180Z,9.13
2023-05-02T18:41:23.968Z,8.85
2023-05-02T18:43:50.626Z,15.85
2023-05-02T18:46:17.073Z,6.20
2023-05-02T18:48:44.062Z,7.32
2023-05-02T18:51:10.750Z,7.18
2023-05-02T18:53:37.198Z,8.10
2023-05-02T18:56:04.106Z,6.60
2023-05-02T18:58:30.672Z,5.90
2023-05-02T19:00:57.384Z,7.72
2023-05-02T19:03:23.988Z,7.00
2023-05-02T19:05:51.269Z,9.52
2023-05-02T19:08:17.691Z,12.52
2023-05-02T19:10:44.348Z,6.10
2023-05-02T19:13:11.000Z,8.00
2023-05-02T19:15:37.514Z,6.25
2023-05-02T19:18:04.059Z,7.25
2023-05-02T19:20:30.667Z,6.05
2023-05-02T19:23:14.662Z,4.45
2023-05-02T19:25:46.052Z,10.60
2023-05-02T19:28:17.170Z,8.18
2023-05-02T19:30:44.876Z,6.25
2023-05-02T19:33:11.633Z,8.83
2023-05-02T19:35:38.445Z,9.90
2023-05-02T19:38:05.038Z,6.88
2023-05-02T19:40:31.584Z,6.97
2023-05-02T19:42:57.964Z,7.10
2023-05-02T19:45:24.605Z,10.45
2023-05-02T19:47:51.274Z,5.60
2023-05-02T19:50:17.949Z,7.15
2023-05-02T19:52:44.922Z,8.82
2023-05-02T19:55:11.671Z,9.45
2023-05-02T19:57:38.054Z,5.72
2023-05-02T20:00:06.356Z,9.75
2023-05-02T20:02:33.580Z,8.32
2023-05-02T20:05:00.019Z,6.47
2023-05-02T20:07:26.412Z,5.25
2023-05-02T20:09:53.231Z,6.95
2023-05-02T20:12:19.932Z,7.95
2023-05-02T20:14:46.284Z,7.75
2023-05-02T20:17:12.590Z,7.20
2023-05-02T20:19:39.203Z,5.78
2023-05-02T20:22:05.886Z,6.80
2023-05-02T20:24:32.269Z,9.38
2023-05-02T20:26:59.412Z,12.05
2023-05-02T20:29:26.110Z,7.20
2023-05-02T20:31:54.314Z,7.85
2023-05-02T20:34:22.716Z,4.75
2023-05-02T20:36:49.366Z,7.25
2023-05-02T20:39:16.155Z,5.00
2023-05-02T20:41:43.789Z,6.90
2023-05-02T20:44:10.365Z,6.83
2023-05-02T20:46:36.902Z,7.88
2023-05-02T20:49:03.574Z,9.38
2023-05-02T20:51:30.216Z,6.13
2023-05-02T20:53:56.926Z,5.18
2023-05-02T20:56:23.332Z,8.60
2023-05-02T20:58:49.707Z,9.68
2023-05-02T21:01:16.688Z,6.03
2023-05-02T21:03:44.280Z,8.85
2023-05-02T21:06:10.745Z,11.87
2023-05-02T21:08:37.211Z,4.80
2023-05-02T21:11:13.388Z,6.95
2023-05-02T21:13:40.511Z,7.38
2023-05-02T21:16:14.404Z,8.05
2023-05-02T21:18:40.845Z,14.90
2023-05-02T21:21:07.558Z,4.65
2023-05-02T21:23:34.159Z,9.75
2023-05-02T21:26:00.552Z,11.10
2023-05-02T21:28:27.160Z,7.22
2023-05-02T21:30:55.147Z,10.32
2023-05-02T21:33:21.769Z,13.00
2023-05-02T21:35:55.013Z,11.77
2023-05-02T21:38:21.382Z,8.55
2023-05-02T21:40:47.760Z,7.28
2023-05-02T21:43:14.331Z,6.90
2023-05-02T21:45:45.631Z,11.00
2023-05-02T21:48:13.282Z,7.07
2023-05-02T21:50:40.776Z,14.67
2023-05-02T21:53:07.282Z,8.18
2023-05-02T21:55:36.560Z,8.98
2023-05-02T21:58:04.039Z,8.75
2023-05-02T22:00:32.278Z,9.55
2023-05-02T22:03:01.577Z,11.40
2023-05-02T22:05:28.260Z,10.10
2023-05-02T22:07:56.636Z,7.47
2023-05-02T22:10:22.940Z,12.77
2023-05-02T22:12:49.358Z,8.35
2023-05-02T22:15:15.733Z,8.70
2023-05-02T22:17:43.090Z,12.48
2023-05-02T22:20:12.875Z,9.27
2023-05-02T22:22:41.291Z,10.88
2023-05-02T22:25:08.392Z,10.50
2023-05-02T22:27:35.246Z,12.63
2023-05-02T22:30:02.409Z,7.35
2023-05-02T22:32:29.025Z,9.45
2023-05-02T22:34:55.590Z,12.60
2023-05-02T22:37:21.960Z,10.88
2023-05-02T22:39:48.533Z,10.55
2023-05-02T22:42:14.906Z,12.00
2023-05-02T22:44:53.024Z,9.23
2023-05-02T22:47:24.015Z,8.85
2023-05-02T22:49:52.480Z,10.35
2023-05-02T22:54:47.260Z,11.15
2023-05-02T22:57:15.192Z,7.95
2023-05-02T22:59:41.788Z,8.85
2023-05-02T23:02:11.887Z,7.55
2023-05-02T23:04:38.607Z,10.20
2023-05-02T23:07:04.995Z,9.23
2023-05-02T23:09:31.523Z,7.72
2023-05-02T23:11:57.901Z,8.13
2023-05-02T23:14:24.509Z,8.05
2023-05-02T23:16:53.508Z,8.00
2023-05-02T23:19:20.229Z,9.60
2023-05-02T23:21:49.440Z,9.60
2023-05-02T23:24:16.177Z,10.30
2023-05-02T23:26:42.783Z,10.15
2023-05-02T23:29:09.566Z,9.32
2023-05-02T23:31:36.141Z,6.53
2023-05-02T23:34:02.580Z,7.43
2023-05-02T23:36:28.998Z,11.93
2023-05-02T23:38:56.799Z,9.88
2023-05-02T23:41:23.703Z,11.13
2023-05-02T23:43:50.396Z,9.32
2023-05-02T23:46:16.999Z,10.38
2023-05-02T23:48:43.369Z,9.13
2023-05-02T23:51:10.022Z,8.43
2023-05-02T23:53:36.673Z,11.35
2023-05-02T23:56:03.063Z,15.52
2023-05-02T23:58:29.771Z,11.93
